Observation data for Memphis on 05/26/2019      Previous  Date  Next       Current Mesonet Observations  Soil Data  Daily Summary Page  Observations in Plain Language
KMES 260500Z 06002KT 17/16 A2994 RMK A01 T01740162  RH  097%=      5-min Rain = 0
KMES 260505Z 06001KT 18/16 A2994 RMK A01 T01750162  RH  097%=      5-min Rain = 0
KMES 260510Z 06002KT 18/16 A2994 RMK A01 T01760163  RH  097%=      5-min Rain = 0
KMES 260515Z 08003KT 18/16 A2993 RMK A01 T01770164  RH  097%=      5-min Rain = 0
KMES 260520Z 08004KT 18/16 A2993 RMK A01 T01770164  RH  097%=      5-min Rain = 0
KMES 260525Z 08005KT 18/17 A2993 RMK A01 T01780165  RH  097%=      5-min Rain = 0
KMES 260530Z 11004KT 18/17 A2993 RMK A01 T01780166  RH  097%=      5-min Rain = 0
KMES 260535Z 12004KT 18/17 A2993 RMK A01 T01790166  RH  097%=      5-min Rain = 0
KMES 260540Z 12004KT 18/17 A2993 RMK A01 T01790166  RH  097%=      5-min Rain = 0
KMES 260545Z 13004KT 18/17 A2993 RMK A01 T01800168  RH  097%=      5-min Rain = 0
KMES 260550Z 12004KT 18/17 A2993 RMK A01 T01810169  RH  097%=      5-min Rain = 0
KMES 260555Z 10002KT 18/17 A2993 RMK A01 T01820170  RH  097%=      5-min Rain = 0
KMES 260600Z 10001KT 18/17 A2994 RMK A01 T01830171  RH  097%=      5-min Rain = 0
KMES 260605Z 12001KT 18/17 A2994 RMK A01 T01840173  RH  098%=      5-min Rain = 0
KMES 260610Z 11003KT 19/18 A2994 RMK A01 T01880176  RH  098%=      5-min Rain = 0
KMES 260615Z 11004KT 19/18 A2994 RMK A01 T01910180  RH  098%=      5-min Rain = 0
KMES 260620Z 12004KT 19/18 A2994 RMK A01 T01920180  RH  098%=      5-min Rain = 0
KMES 260625Z 13005KT 19/18 A2994 RMK A01 T01920180  RH  098%=      5-min Rain = 0
KMES 260630Z 12005KT 19/18 A2994 RMK A01 T01920180  RH  098%=      5-min Rain = 0
KMES 260635Z 11005KT 19/18 A2994 RMK A01 T01930181  RH  098%=      5-min Rain = 0
KMES 260640Z 11004KT 19/18 A2994 RMK A01 T01930181  RH  098%=      5-min Rain = 0
KMES 260645Z 10003KT 19/18 A2994 RMK A01 T01930181  RH  098%=      5-min Rain = 0
KMES 260650Z 09003KT 19/18 A2994 RMK A01 T01930182  RH  098%=      5-min Rain = 0
KMES 260655Z 10003KT 19/18 A2994 RMK A01 T01930182  RH  098%=      5-min Rain = 0
KMES 260700Z 11004KT 19/18 A2994 RMK A01 T01940183  RH  098%=      5-min Rain = 0
KMES 260705Z 12005KT 19/18 A2994 RMK A01 T01940183  RH  098%=      5-min Rain = 0
KMES 260710Z 12006KT 20/19 A2994 RMK A01 T01960185  RH  099%=      5-min Rain = 0
KMES 260715Z 12006KT 20/19 A2994 RMK A01 T01960185  RH  099%=      5-min Rain = 0
KMES 260720Z 13007KT 20/19 A2994 RMK A01 T01980187  RH  099%=      5-min Rain = 0
KMES 260725Z 12006KT 20/19 A2994 RMK A01 T01990188  RH  099%=      5-min Rain = 0
KMES 260730Z 12006KT 20/19 A2994 RMK A01 T01990189  RH  099%=      5-min Rain = 0
KMES 260735Z 12006KT 20/19 A2994 RMK A01 T02000189  RH  099%=      5-min Rain = 0
KMES 260740Z 12005KT 20/19 A2994 RMK A01 T02010190  RH  099%=      5-min Rain = 0
KMES 260745Z 12005KT 20/19 A2994 RMK A01 T02010190  RH  099%=      5-min Rain = 0
KMES 260750Z 12005KT 20/19 A2995 RMK A01 T02010190  RH  099%=      5-min Rain = 0
KMES 260755Z 13006KT 20/19 A2995 RMK A01 T02000189  RH  098%=      5-min Rain = 0
KMES 260800Z 13007KT 20/19 A2995 RMK A01 T02000189  RH  099%=      5-min Rain = 0
KMES 260805Z 13007KT 20/19 A2994 RMK A01 T02010190  RH  099%=      5-min Rain = 0
KMES 260810Z 13008KT 20/19 A2994 RMK A01 T02010191  RH  099%=      5-min Rain = 0
KMES 260815Z 14008KT 20/19 A2994 RMK A01 T02020191  RH  099%=      5-min Rain = 0
KMES 260820Z 13008KT 20/19 A2994 RMK A01 T02020191  RH  099%=      5-min Rain = 0
KMES 260825Z 13007KT 20/19 A2994 RMK A01 T02020191  RH  099%=      5-min Rain = 0
KMES 260830Z 13007KT 20/19 A2994 RMK A01 T02010190  RH  099%=      5-min Rain = 0
KMES 260835Z 13007KT 20/19 A2994 RMK A01 T02010190  RH  099%=      5-min Rain = 0
KMES 260840Z 13007KT 20/19 A2994 RMK A01 T02010190  RH  099%=      5-min Rain = 0
KMES 260845Z 13007KT 20/19 A2994 RMK A01 T02010190  RH  099%=      5-min Rain = 0
KMES 260850Z 13007KT 20/19 A2994 RMK A01 T02010189  RH  099%=      5-min Rain = 0
KMES 260855Z 13007KT 20/19 A2994 RMK A01 T02010190  RH  099%=      5-min Rain = 0
KMES 260900Z 13006KT 20/19 A2994 RMK A01 T02000189  RH  099%=      5-min Rain = 0
KMES 260905Z 13006KT 20/19 A2994 RMK A01 T02000189  RH  099%=      5-min Rain = 0
KMES 260910Z 13006KT 20/19 A2995 RMK A01 T01990188  RH  099%=      5-min Rain = 0
KMES 260915Z 12006KT 20/19 A2995 RMK A01 T01990188  RH  099%=      5-min Rain = 0
KMES 260920Z 12006KT 20/19 A2995 RMK A01 T01990188  RH  099%=      5-min Rain = 0
KMES 260925Z 13006KT 20/19 A2995 RMK A01 T01980187  RH  099%=      5-min Rain = 0
KMES 260930Z 13006KT 20/19 A2995 RMK A01 T01980187  RH  099%=      5-min Rain = 0
KMES 260935Z 13006KT 20/19 A2995 RMK A01 T01980187  RH  099%=      5-min Rain = 0
KMES 260940Z 13006KT 20/19 A2995 RMK A01 T01970187  RH  099%=      5-min Rain = 0
KMES 260945Z 12006KT 20/19 A2995 RMK A01 T01980187  RH  099%=      5-min Rain = 0
KMES 260950Z 11005KT 20/19 A2995 RMK A01 T01980187  RH  099%=      5-min Rain = 0
KMES 260955Z 11004KT 20/19 A2996 RMK A01 T01980187  RH  099%=      5-min Rain = 0
KMES 261000Z 11004KT 20/19 A2996 RMK A01 T01980188  RH  099%=      5-min Rain = 0
KMES 261005Z 11005KT 20/19 A2995 RMK A01 T01980187  RH  099%=      5-min Rain = 0
KMES 261010Z 12005KT 20/19 A2995 RMK A01 T01970186  RH  099%=      5-min Rain = 0
KMES 261015Z 13004KT 20/19 A2996 RMK A01 T01960185  RH  099%=      5-min Rain = 0
KMES 261020Z 13004KT 20/19 A2996 RMK A01 T01960185  RH  099%=      5-min Rain = 0
KMES 261025Z 12004KT 20/19 A2996 RMK A01 T01970186  RH  099%=      5-min Rain = 0
KMES 261030Z 12004KT 20/19 A2996 RMK A01 T01970187  RH  099%=      5-min Rain = 0
KMES 261035Z 12005KT 20/19 A2996 RMK A01 T01980187  RH  099%=      5-min Rain = 0
KMES 261040Z 12006KT 20/19 A2996 RMK A01 T01980188  RH  099%=      5-min Rain = 0
KMES 261045Z 12006KT 20/19 A2996 RMK A01 T01990188  RH  099%=      5-min Rain = 0
KMES 261050Z 13006KT 20/19 A2996 RMK A01 T01990189  RH  099%=      5-min Rain = 0
KMES 261055Z 13007KT 20/19 A2996 RMK A01 T02000189  RH  099%=      5-min Rain = 0
KMES 261100Z 12007KT 20/19 A2996 RMK A01 T02000190  RH  099%=      5-min Rain = 0
KMES 261105Z 12008KT 20/19 A2996 RMK A01 T02000190  RH  099%=      5-min Rain = 0
KMES 261110Z 12007KT 20/19 A2997 RMK A01 T02010190  RH  099%=      5-min Rain = 0
KMES 261115Z 13008KT 20/19 A2997 RMK A01 T02010191  RH  099%=      5-min Rain = 0
KMES 261120Z 13008KT 20/19 A2997 RMK A01 T02010191  RH  099%=      5-min Rain = 0
KMES 261125Z 12008KT 20/19 A2997 RMK A01 T02020191  RH  099%=      5-min Rain = 0
KMES 261130Z 12009KT 20/19 A2997 RMK A01 T02020191  RH  099%=      5-min Rain = 0
KMES 261135Z 12008KT 20/19 A2998 RMK A01 T02020191  RH  099%=      5-min Rain = 0
KMES 261140Z 13008KT 20/19 A2998 RMK A01 T02020191  RH  099%=      5-min Rain = 0
KMES 261145Z 12008KT 20/19 A2998 RMK A01 T02020191  RH  099%=      5-min Rain = 0
KMES 261150Z 12008KT 20/19 A2998 RMK A01 T02020191  RH  099%=      5-min Rain = 0
KMES 261155Z 12009KT 20/19 A2998 RMK A01 T02020191  RH  099%=      5-min Rain = 0
KMES 261200Z 12008KT 20/19 A2998 RMK A01 T02020191  RH  099%=      5-min Rain = 0
KMES 261205Z 13009KT 20/19 A2999 RMK A01 T02030191  RH  099%=      5-min Rain = 0
KMES 261210Z 13009KT 20/19 A2999 RMK A01 T02030191  RH  099%=      5-min Rain = 0
KMES 261215Z 13008KT 20/19 A2999 RMK A01 T02030192  RH  099%=      5-min Rain = 0
KMES 261220Z 13009KT 20/19 A2999 RMK A01 T02030192  RH  099%=      5-min Rain = 0
KMES 261225Z 14009KT 20/19 A2999 RMK A01 T02030192  RH  098%=      5-min Rain = 0
KMES 261230Z 14009KT 20/19 A30 RMK A01 T02040192  RH  098%=      5-min Rain = 0
KMES 261235Z 14009KT 20/19 A30 RMK A01 T02040192  RH  098%=      5-min Rain = 0
KMES 261240Z 14010KT 20/19 A30 RMK A01 T02040192  RH  098%=      5-min Rain = 0
KMES 261245Z 14010KT 20/19 A30 RMK A01 T02040192  RH  098%=      5-min Rain = 0
KMES 261250Z 14009KT 20/19 A30 RMK A01 T02040192  RH  098%=      5-min Rain = 0
KMES 261255Z 14010KT 21/19 A30 RMK A01 T02050192  RH  098%=      5-min Rain = 0
KMES 261300Z 14009KT 21/19 A30 RMK A01 T02050193  RH  098%=      5-min Rain = 0
KMES 261305Z 14010KT 21/19 A30 RMK A01 T02050193  RH  098%=      5-min Rain = 0
KMES 261310Z 14011KT 21/19 A30 RMK A01 T02060193  RH  098%=      5-min Rain = 0
KMES 261315Z 14010G15KT 21/19 A30 RMK A01 T02060193  RH  098%=      5-min Rain = 0
KMES 261320Z 14012KT 21/19 A30 RMK A01 T02060193  RH  097%=      5-min Rain = 0
KMES 261325Z 14011KT 21/19 A30 RMK A01 T02060192  RH  097%=      5-min Rain = 0
KMES 261330Z 14011KT 21/19 A30 RMK A01 T02060192  RH  097%=      5-min Rain = 0
KMES 261335Z 14011G17KT 21/19 A30 RMK A01 T02060192  RH  097%=      5-min Rain = 0
KMES 261340Z 14010KT 21/19 A3001 RMK A01 T02060192  RH  097%=      5-min Rain = 0
KMES 261345Z 14011KT 21/19 A30 RMK A01 T02070192  RH  097%=      5-min Rain = 0
KMES 261350Z 14010G15KT 21/19 A30 RMK A01 T02070193  RH  097%=      5-min Rain = 0
KMES 261355Z 14011KT 21/19 A3001 RMK A01 T02080193  RH  096%=      5-min Rain = 0
KMES 261400Z 14011G16KT 21/19 A3001 RMK A01 T02080193  RH  096%=      5-min Rain = 0
KMES 261405Z 14014KT 21/19 A3001 RMK A01 T02090193  RH  096%=      5-min Rain = 0
KMES 261410Z 14012G17KT 21/19 A3001 RMK A01 T02090193  RH  096%=      5-min Rain = 0
KMES 261415Z 15012G17KT 21/19 A3001 RMK A01 T02110194  RH  095%=      5-min Rain = 0
KMES 261420Z 15011G18KT 21/19 A3001 RMK A01 T02120194  RH  095%=      5-min Rain = 0
KMES 261425Z 15012G18KT 21/19 A3001 RMK A01 T02130194  RH  094%=      5-min Rain = 0
KMES 261430Z 14013KT 21/19 A3001 RMK A01 T02130194  RH  094%=      5-min Rain = 0
KMES 261435Z 15012G17KT 21/19 A3001 RMK A01 T02130193  RH  093%=      5-min Rain = 0
KMES 261440Z 15011G17KT 21/19 A3001 RMK A01 T02130192  RH  093%=      5-min Rain = 0
KMES 261445Z 15010G18KT 21/19 A3002 RMK A01 T02140193  RH  093%=      5-min Rain = 0
KMES 261450Z 15011G17KT 22/19 A3002 RMK A01 T02150194  RH  093%=      5-min Rain = 0
KMES 261455Z 15013G18KT 21/19 A3001 RMK A01 T02140192  RH  092%=      5-min Rain = 0
KMES 261500Z 15012G19KT 22/19 A3002 RMK A01 T02150192  RH  092%=      5-min Rain = 0
KMES 261505Z 15012G17KT 22/19 A3002 RMK A01 T02150192  RH  092%=      5-min Rain = 0
KMES 261510Z 15014G20KT 22/19 A3002 RMK A01 T02160192  RH  091%=      5-min Rain = 0
KMES 261515Z 15013G18KT 22/19 A3002 RMK A01 T02160191  RH  091%=      5-min Rain = 0
KMES 261520Z 15011G17KT 22/19 A3002 RMK A01 T02160191  RH  091%=      5-min Rain = 0
KMES 261525Z 15011G17KT 22/19 A3002 RMK A01 T02170192  RH  091%=      5-min Rain = 0
KMES 261530Z 15014G20KT 22/19 A3002 RMK A01 T02160191  RH  091%=      5-min Rain = 0
KMES 261535Z 15011G16KT 22/19 A3002 RMK A01 T02170192  RH  090%=      5-min Rain = 0
KMES 261540Z 15011G17KT 22/19 A3002 RMK A01 T02180192  RH  090%=      5-min Rain = 0
KMES 261545Z 15010KT 22/19 A3002 RMK A01 T02190193  RH  090%=      5-min Rain = 0
KMES 261550Z 15011G16KT 22/19 A3001 RMK A01 T02190194  RH  090%=      5-min Rain = 0
KMES 261555Z 15013G19KT 22/19 A3001 RMK A01 T02190192  RH  089%=      5-min Rain = 0
KMES 261600Z 15012G17KT 22/19 A3001 RMK A01 T02190191  RH  089%=      5-min Rain = 0
KMES 261605Z 15012KT 22/19 A3001 RMK A01 T02190191  RH  089%=      5-min Rain = 0
KMES 261610Z 15012KT 22/19 A3001 RMK A01 T02190190  RH  088%=      5-min Rain = 0
KMES 261615Z 14012G18KT 22/19 A3001 RMK A01 T02190190  RH  089%=      5-min Rain = 0
KMES 261620Z 15011G16KT 22/19 A3001 RMK A01 T02190190  RH  089%=      5-min Rain = 0
KMES 261625Z 15011KT 22/19 A3001 RMK A01 T02200191  RH  089%=      5-min Rain = 0
KMES 261630Z 15011G17KT 22/19 A3001 RMK A01 T02210192  RH  088%=      5-min Rain = 0
KMES 261635Z 15011G16KT 22/19 A30 RMK A01 T02210190  RH  087%=      5-min Rain = 0
KMES 261640Z 14011G17KT 22/19 A30 RMK A01 T02220190  RH  087%=      5-min Rain = 0
KMES 261645Z 15012G17KT 22/19 A30 RMK A01 T02220190  RH  087%=      5-min Rain = 0
KMES 261650Z 14013KT 22/19 A30 RMK A01 T02220189  RH  086%=      5-min Rain = 0
KMES 261655Z 15012G17KT 22/19 A30 RMK A01 T02220188  RH  086%=      5-min Rain = 0
KMES 261700Z 14013KT 22/19 A30 RMK A01 T02220188  RH  086%=      5-min Rain = 0
KMES 261705Z 15010KT 22/19 A30 RMK A01 T02220188  RH  086%=      5-min Rain = 0
KMES 261710Z 15011G17KT 22/19 A30 RMK A01 T02210187  RH  086%=      5-min Rain = 0
KMES 261715Z 15011G16KT 22/19 A30 RMK A01 T02210188  RH  086%=      5-min Rain = 0
KMES 261720Z 15010G16KT 22/19 A30 RMK A01 T02200187  RH  086%=      5-min Rain = 0
KMES 261725Z 15011G16KT 22/19 A30 RMK A01 T02200187  RH  086%=      5-min Rain = 0
KMES 261730Z 15009KT 22/19 A3001 RMK A01 T02210188  RH  086%=      5-min Rain = 0
KMES 261735Z 15010KT 22/19 A30 RMK A01 T02210188  RH  086%=      5-min Rain = 0
KMES 261740Z 15010KT 22/19 A30 RMK A01 T02220189  RH  086%=      5-min Rain = 0
KMES 261745Z 14009G14KT 22/19 A30 RMK A01 T02230190  RH  086%=      5-min Rain = 0
KMES 261750Z 15011G17KT 22/19 A30 RMK A01 T02240189  RH  085%=      5-min Rain = 0
KMES 261755Z 15011G16KT 22/19 A30 RMK A01 T02230187  RH  085%=      5-min Rain = 0
KMES 261800Z 15010KT 22/19 A30 RMK A01 T02240188  RH  085%=      5-min Rain = 0
KMES 261805Z 14012G17KT 23/19 A30 RMK A01 T02250188  RH  085%=      5-min Rain = 0
KMES 261810Z 14012G17KT 23/19 A30 RMK A01 T02250188  RH  084%=      5-min Rain = 0
KMES 261815Z 15013KT 23/19 A30 RMK A01 T02250187  RH  084%=      5-min Rain = 0
KMES 261820Z 15011KT 23/19 A30 RMK A01 T02260188  RH  084%=      5-min Rain = 0
KMES 261825Z 16012KT 23/19 A30 RMK A01 T02250187  RH  083%=      5-min Rain = 0
KMES 261830Z 15009G15KT 23/19 A30 RMK A01 T02260188  RH  083%=      5-min Rain = 0
KMES 261835Z 16009G15KT 23/19 A30 RMK A01 T02260188  RH  083%=      5-min Rain = 0
KMES 261840Z 15011G18KT 23/19 A30 RMK A01 T02250187  RH  084%=      5-min Rain = 0
KMES 261845Z 15010G15KT 22/19 A30 RMK A01 T02230187  RH  085%=      5-min Rain = 0
KMES 261850Z 15009G15KT 23/19 A30 RMK A01 T02250188  RH  084%=      5-min Rain = 0
KMES 261855Z 15010G16KT 23/19 A2999 RMK A01 T02270187  RH  083%=      5-min Rain = 0
KMES 261900Z 15013G21KT 23/19 A2999 RMK A01 T02280186  RH  082%=      5-min Rain = 0
KMES 261905Z 14013KT 23/19 A2999 RMK A01 T02290185  RH  081%=      5-min Rain = 0
KMES 261910Z 15013G18KT 23/19 A2999 RMK A01 T02300186  RH  080%=      5-min Rain = 0
KMES 261915Z 15012G18KT 23/19 A2999 RMK A01 T02300185  RH  080%=      5-min Rain = 0
KMES 261920Z 16009KT 23/19 A2999 RMK A01 T02300187  RH  081%=      5-min Rain = 0
KMES 261925Z 16009G14KT 23/19 A2999 RMK A01 T02300187  RH  081%=      5-min Rain = 0
KMES 261930Z 15010KT 23/19 A2998 RMK A01 T02300187  RH  081%=      5-min Rain = 0
KMES 261935Z 15010G15KT 23/19 A2999 RMK A01 T02300186  RH  080%=      5-min Rain = 0
KMES 261940Z 15010G17KT 23/19 A2999 RMK A01 T02300186  RH  080%=      5-min Rain = 0
KMES 261945Z 15011G16KT 23/19 A2999 RMK A01 T02300185  RH  080%=      5-min Rain = 0
KMES 261950Z 15010KT 23/19 A2999 RMK A01 T02300185  RH  080%=      5-min Rain = 0
KMES 261955Z 15008KT 23/19 A2998 RMK A01 T02290186  RH  081%=      5-min Rain = 0
KMES 262000Z 15007KT 23/19 A2998 RMK A01 T02300187  RH  081%=      5-min Rain = 0
KMES 262005Z 15008KT 23/19 A2998 RMK A01 T02300187  RH  081%=      5-min Rain = 0
KMES 262010Z 15009KT 23/19 A2998 RMK A01 T02290187  RH  081%=      5-min Rain = 0
KMES 262015Z 16008KT 23/19 A2999 RMK A01 T02290187  RH  082%=      5-min Rain = 0
KMES 262020Z 16007KT 23/19 A2999 RMK A01 T02290188  RH  082%=      5-min Rain = 0
KMES 262025Z 16009G14KT 23/19 A2999 RMK A01 T02280189  RH  083%=      5-min Rain = 0
KMES 262030Z 17006G12KT 23/19 A2999 RMK A01 T02260189  RH  084%=      5-min Rain = 0
KMES 262035Z 18009G16KT 23/19 A2998 RMK A01 T02260189  RH  084%=      5-min Rain = 0
KMES 262040Z 17008G13KT 23/19 A2998 RMK A01 T02260190  RH  085%=      5-min Rain = 0
KMES 262045Z 18008KT 23/19 A2998 RMK A01 T02250191  RH  085%=      5-min Rain = 0
KMES 262050Z 17007KT 23/19 A2998 RMK A01 T02250191  RH  086%=      5-min Rain = 0
KMES 262055Z 18007G13KT 23/19 A2998 RMK A01 T02260192  RH  086%=      5-min Rain = 0
KMES 262100Z 17007KT 23/19 A2998 RMK A01 T02250192  RH  086%=      5-min Rain = 0
KMES 262105Z 18008G13KT 22/19 A2998 RMK A01 T02240192  RH  087%=      5-min Rain = 0
KMES 262110Z 18007KT 22/19 A2997 RMK A01 T02230193  RH  088%=      5-min Rain = 0
KMES 262115Z 17005KT 22/19 A2997 RMK A01 T02240194  RH  088%=      5-min Rain = 0
KMES 262120Z 16007KT 23/20 A2997 RMK A01 T02250195  RH  088%=      5-min Rain = 0.01
KMES 262125Z 17009G14KT 22/19 A2997 RMK A01 T02220194  RH  089%=      5-min Rain = 0
KMES 262130Z 17007G12KT 22/19 A2997 RMK A01 T02190194  RH  091%=      5-min Rain = 0
KMES 262135Z 17006KT 22/20 A2997 RMK A01 T02180195  RH  092%=      5-min Rain = 0.01
KMES 262140Z 17006KT 22/20 A2996 RMK A01 T02180197  RH  093%=      5-min Rain = 0
KMES 262145Z 17005KT 22/20 A2996 RMK A01 T02180198  RH  093%=      5-min Rain = 0
KMES 262150Z 16004KT 22/20 A2996 RMK A01 T02190199  RH  094%=      5-min Rain = 0
KMES 262155Z 15005KT 22/20 A2995 RMK A01 T02210201  RH  094%=      5-min Rain = 0
KMES 262200Z 16004KT 22/20 A2995 RMK A01 T02220202  RH  094%=      5-min Rain = 0
KMES 262205Z 15003KT 22/20 A2995 RMK A01 T02230203  RH  094%=      5-min Rain = 0
KMES 262210Z 14003KT 22/20 A2995 RMK A01 T02240203  RH  093%=      5-min Rain = 0
KMES 262215Z 14004KT 23/20 A2994 RMK A01 T02250204  RH  093%=      5-min Rain = 0
KMES 262220Z 13006KT 23/21 A2994 RMK A01 T02270205  RH  092%=      5-min Rain = 0
KMES 262225Z 13008KT 23/20 A2994 RMK A01 T02290204  RH  091%=      5-min Rain = 0
KMES 262230Z 14009KT 23/20 A2993 RMK A01 T02310204  RH  090%=      5-min Rain = 0
KMES 262235Z 13011KT 23/20 A2993 RMK A01 T02330203  RH  088%=      5-min Rain = 0
KMES 262240Z 13010KT 24/20 A2992 RMK A01 T02350204  RH  088%=      5-min Rain = 0
KMES 262245Z 13010KT 24/20 A2991 RMK A01 T02360204  RH  087%=      5-min Rain = 0
KMES 262250Z 14011KT 24/20 A2991 RMK A01 T02370203  RH  086%=      5-min Rain = 0
KMES 262255Z 14008KT 24/20 A2991 RMK A01 T02380203  RH  085%=      5-min Rain = 0
KMES 262300Z 14008KT 24/20 A2991 RMK A01 T02390201  RH  084%=      5-min Rain = 0
KMES 262305Z 14006KT 24/20 A2992 RMK A01 T02400202  RH  084%=      5-min Rain = 0
KMES 262310Z 14006KT 24/20 A2992 RMK A01 T02400203  RH  085%=      5-min Rain = 0
KMES 262315Z 15008KT 24/20 A2991 RMK A01 T02400201  RH  084%=      5-min Rain = 0
KMES 262320Z 14008KT 24/20 A2991 RMK A01 T02400201  RH  083%=      5-min Rain = 0
KMES 262325Z 13011KT 24/20 A299 RMK A01 T02400201  RH  083%=      5-min Rain = 0
KMES 262330Z 13014KT 24/20 A299 RMK A01 T02400200  RH  083%=      5-min Rain = 0
KMES 262335Z 14011G17KT 24/20 A2989 RMK A01 T02400200  RH  083%=      5-min Rain = 0
KMES 262340Z 13012KT 24/20 A2989 RMK A01 T02400200  RH  083%=      5-min Rain = 0
KMES 262345Z 14012G17KT 24/20 A2989 RMK A01 T02400200  RH  083%=      5-min Rain = 0
KMES 262350Z 14010KT 24/20 A2989 RMK A01 T02420200  RH  082%=      5-min Rain = 0
KMES 262355Z 14010G15KT 24/20 A2989 RMK A01 T02420201  RH  083%=      5-min Rain = 0
KMES 270000Z 13009G14KT 24/20 A2988 RMK A01 T02420203  RH  083%=      5-min Rain = 0
KMES 270005Z 13011KT 24/20 A2988 RMK A01 T02420202  RH  083%=      5-min Rain = 0
KMES 270010Z 13010KT 24/20 A2988 RMK A01 T02410201  RH  083%=      5-min Rain = 0
KMES 270015Z 13010KT 24/20 A2988 RMK A01 T02390201  RH  084%=      5-min Rain = 0
KMES 270020Z 13010KT 24/20 A2988 RMK A01 T02380200  RH  084%=      5-min Rain = 0
KMES 270025Z 12009KT 24/20 A2987 RMK A01 T02380201  RH  084%=      5-min Rain = 0
KMES 270030Z 12011KT 24/20 A2986 RMK A01 T02380200  RH  084%=      5-min Rain = 0
KMES 270035Z 11011KT 24/20 A2985 RMK A01 T02390200  RH  084%=      5-min Rain = 0
KMES 270040Z 11012G17KT 24/20 A2985 RMK A01 T02390200  RH  084%=      5-min Rain = 0
KMES 270045Z 12011G17KT 24/20 A2984 RMK A01 T02420201  RH  083%=      5-min Rain = 0
KMES 270050Z 12011KT 24/20 A2983 RMK A01 T02420200  RH  082%=      5-min Rain = 0
KMES 270055Z 12011G16KT 24/20 A2983 RMK A01 T02420199  RH  082%=      5-min Rain = 0
KMES 270100Z 12010KT 24/20 A2983 RMK A01 T02400198  RH  082%=      5-min Rain = 0
KMES 270105Z 14009G14KT 24/20 A2984 RMK A01 T02390198  RH  082%=      5-min Rain = 0
KMES 270110Z 14009KT 24/20 A2985 RMK A01 T02390198  RH  083%=      5-min Rain = 0
KMES 270115Z 13010KT 24/20 A2984 RMK A01 T02380198  RH  083%=      5-min Rain = 0
KMES 270120Z 13009KT 24/20 A2984 RMK A01 T02380198  RH  083%=      5-min Rain = 0
KMES 270125Z 13010G15KT 24/20 A2983 RMK A01 T02370197  RH  083%=      5-min Rain = 0
KMES 270130Z 12011KT 24/20 A2983 RMK A01 T02360196  RH  083%=      5-min Rain = 0
KMES 270135Z 13011KT 24/20 A2983 RMK A01 T02350195  RH  083%=      5-min Rain = 0
KMES 270140Z 13010KT 23/20 A2983 RMK A01 T02340195  RH  083%=      5-min Rain = 0
KMES 270145Z 13008KT 23/20 A2984 RMK A01 T02330195  RH  084%=      5-min Rain = 0
KMES 270150Z 13007KT 23/20 A2985 RMK A01 T02310195  RH  084%=      5-min Rain = 0
KMES 270155Z 13007KT 23/20 A2985 RMK A01 T02310195  RH  085%=      5-min Rain = 0
KMES 270200Z 14006KT 23/20 A2986 RMK A01 T02310195  RH  085%=      5-min Rain = 0
KMES 270205Z 14006KT 23/20 A2986 RMK A01 T02300195  RH  085%=      5-min Rain = 0
KMES 270210Z 14007KT 23/20 A2986 RMK A01 T02300195  RH  085%=      5-min Rain = 0
KMES 270215Z 13007KT 23/20 A2986 RMK A01 T02290195  RH  086%=      5-min Rain = 0
KMES 270220Z 13008KT 23/20 A2986 RMK A01 T02280196  RH  087%=      5-min Rain = 0
KMES 270225Z 13008KT 23/20 A2986 RMK A01 T02280196  RH  087%=      5-min Rain = 0
KMES 270230Z 13007KT 23/20 A2987 RMK A01 T02290196  RH  086%=      5-min Rain = 0
KMES 270235Z 13007KT 23/20 A2987 RMK A01 T02290196  RH  086%=      5-min Rain = 0
KMES 270240Z 13006KT 23/20 A2988 RMK A01 T02280196  RH  087%=      5-min Rain = 0
KMES 270245Z 13006KT 23/20 A2988 RMK A01 T02280196  RH  087%=      5-min Rain = 0
KMES 270250Z 12007KT 23/20 A2988 RMK A01 T02280195  RH  087%=      5-min Rain = 0
KMES 270255Z 12006KT 23/20 A2988 RMK A01 T02280195  RH  086%=      5-min Rain = 0
KMES 270300Z 13006KT 23/20 A2989 RMK A01 T02280195  RH  086%=      5-min Rain = 0
KMES 270305Z 12006KT 23/20 A2988 RMK A01 T02270195  RH  087%=      5-min Rain = 0
KMES 270310Z 11006KT 23/20 A2988 RMK A01 T02270195  RH  087%=      5-min Rain = 0
KMES 270315Z 11007KT 23/19 A2988 RMK A01 T02270194  RH  087%=      5-min Rain = 0
KMES 270320Z 11007KT 23/19 A2988 RMK A01 T02270194  RH  086%=      5-min Rain = 0
KMES 270325Z 11007KT 23/19 A2988 RMK A01 T02280193  RH  085%=      5-min Rain = 0
KMES 270330Z 11006KT 23/19 A2988 RMK A01 T02290192  RH  085%=      5-min Rain = 0
KMES 270335Z 11005KT 23/19 A2988 RMK A01 T02290192  RH  084%=      5-min Rain = 0
KMES 270340Z 10005KT 23/19 A2988 RMK A01 T02290192  RH  084%=      5-min Rain = 0
KMES 270345Z 10005KT 23/19 A2988 RMK A01 T02290192  RH  084%=      5-min Rain = 0
KMES 270350Z 10005KT 23/19 A2988 RMK A01 T02290191  RH  084%=      5-min Rain = 0
KMES 270355Z 10006KT 23/19 A2987 RMK A01 T02280191  RH  084%=      5-min Rain = 0
KMES 270400Z 10006G11KT 23/19 A2987 RMK A01 T02280191  RH  084%=      5-min Rain = 0
KMES 270405Z 10006G11KT 23/19 A2987 RMK A01 T02280191  RH  084%=      5-min Rain = 0
KMES 270410Z 10005KT 23/19 A2987 RMK A01 T02280190  RH  084%=      5-min Rain = 0
KMES 270415Z 10005KT 23/19 A2987 RMK A01 T02270190  RH  084%=      5-min Rain = 0
KMES 270420Z 10005KT 23/19 A2987 RMK A01 T02270190  RH  084%=      5-min Rain = 0
KMES 270425Z 10005KT 23/19 A2987 RMK A01 T02270190  RH  084%=      5-min Rain = 0
KMES 270430Z 10006KT 23/19 A2987 RMK A01 T02260190  RH  085%=      5-min Rain = 0
KMES 270435Z 10005KT 23/19 A2987 RMK A01 T02250190  RH  085%=      5-min Rain = 0
KMES 270440Z 10004KT 23/19 A2987 RMK A01 T02250189  RH  085%=      5-min Rain = 0
KMES 270445Z 11001KT 23/19 A2988 RMK A01 T02250189  RH  085%=      5-min Rain = 0
KMES 270450Z 11002KT 23/19 A2988 RMK A01 T02250189  RH  085%=      5-min Rain = 0
KMES 270455Z 11004KT 22/19 A2987 RMK A01 T02240189  RH  085%=      5-min Rain = 0

Page generated in 0.0093 seconds.